KTRM/TRM METAR and TAF weather

Enter ICAO airport designator
Station Type Date Time Source
KTRM METAR 2021/03/03 01:52 UTC NOAA

KTRM 030152Z AUTO 16004KT 10SM CLR 19/M09 A2982 RMK AO2 SLP097 T01941089


Station Type Date Time Source
KTRM Decoded METAR 2021/03/03 01:52 UTC NOAA

Palm Springs, Jacqueline Cochran Regional Airport, CA, United States (KTRM) 33-37-36N 116-09-34W
Mar 02, 2021 - 08:52 PM EST / 2021.03.03 0152 UTC
Wind: from the SSE (160 degrees) at 5 MPH (4 KT):0
Visibility: 10 mile(s):0
Sky conditions: clear
Temperature: 66.9 F (19.4 C)
Dew Point: 16.0 F (-8.9 C)
Relative Humidity: 13%
Pressure (altimeter): 29.82 in. Hg (1009 hPa)
ob: KTRM 030152Z AUTO 16004KT 10SM CLR 19/M09 A2982 RMK AO2 SLP097 T01941089
cycle: 2

Station Type Date Time Source
KTRM TAF 2021/03/02 18:42 UTC NOAA

TAF KTRM 021738Z 0218/0318 32005KT P6SM SCT250
FM021900 15007KT P6SM SCT250
FM030400 33006KT P6SM SCT250
FM031400 11007KT P6SM BKN250

Example: see airport list